createdAt,value
2022-09-10T00:00:17.841Z,2.90
2022-09-10T00:02:45.502Z,2.50
2022-09-10T00:05:13.306Z,4.07
2022-09-10T00:07:40.184Z,2.13
2022-09-10T00:10:07.149Z,2.00
2022-09-10T00:12:35.445Z,2.20
2022-09-10T00:15:02.225Z,2.37
2022-09-10T00:17:29.328Z,1.47
2022-09-10T00:19:56.112Z,2.23
2022-09-10T00:22:23.029Z,5.07
2022-09-10T00:24:50.002Z,2.30
2022-09-10T00:27:17.455Z,2.03
2022-09-10T00:29:44.453Z,1.40
2022-09-10T00:32:11.383Z,2.20
2022-09-10T00:34:38.228Z,2.50
2022-09-10T00:37:05.745Z,2.10
2022-09-10T00:39:32.737Z,4.17
2022-09-10T00:41:59.619Z,3.90
2022-09-10T00:44:41.846Z,2.03
2022-09-10T00:47:19.530Z,2.50
2022-09-10T00:49:52.145Z,1.97
2022-09-10T00:52:19.198Z,3.87
2022-09-10T00:54:46.568Z,2.17
2022-09-10T00:57:18.942Z,3.83
2022-09-10T00:59:49.079Z,1.90
2022-09-10T01:02:16.057Z,1.43
2022-09-10T01:04:43.266Z,4.47
2022-09-10T01:07:10.975Z,1.40
2022-09-10T01:09:38.390Z,1.03
2022-09-10T01:12:23.899Z,0.60
2022-09-10T01:14:57.138Z,0.80
2022-09-10T01:17:24.088Z,2.43
2022-09-10T01:19:54.142Z,1.40
2022-09-10T01:22:37.229Z,1.40
2022-09-10T01:25:11.018Z,0.70
2022-09-10T01:27:40.013Z,1.03
2022-09-10T01:30:07.354Z,2.00
2022-09-10T01:32:51.148Z,0.70
2022-09-10T01:35:19.316Z,0.60
2022-09-10T01:37:48.520Z,1.53
2022-09-10T01:40:17.942Z,0.33
2022-09-10T01:42:45.824Z,2.03
2022-09-10T01:45:14.468Z,0.70
2022-09-10T01:48:04.181Z,0.87
2022-09-10T01:50:33.306Z,1.20
2022-09-10T01:53:06.428Z,0.37
2022-09-10T01:55:33.389Z,0.70
2022-09-10T01:58:19.965Z,0.80
2022-09-10T02:01:12.061Z,0.90
2022-09-10T02:03:40.069Z,0.73
2022-09-10T02:06:09.663Z,0.93
2022-09-10T02:08:39.377Z,0.50
2022-09-10T02:11:10.759Z,0.67
2022-09-10T02:13:42.515Z,0.30
2022-09-10T02:16:22.237Z,1.03
2022-09-10T02:18:49.893Z,1.30
2022-09-10T02:21:17.725Z,1.73
2022-09-10T02:23:46.475Z,0.83
2022-09-10T02:26:17.153Z,1.43
2022-09-10T02:28:44.525Z,0.90
2022-09-10T02:31:13.027Z,1.20
2022-09-10T02:33:39.918Z,2.30
2022-09-10T02:36:06.924Z,1.73
2022-09-10T02:38:33.895Z,1.00
2022-09-10T02:41:00.872Z,1.73
2022-09-10T02:43:28.079Z,0.90
2022-09-10T02:45:58.875Z,1.20
2022-09-10T02:48:27.069Z,1.63
2022-09-10T02:50:57.275Z,0.50
2022-09-10T02:53:26.877Z,0.73
2022-09-10T02:55:56.788Z,1.10
2022-09-10T02:58:23.919Z,0.60
2022-09-10T03:00:50.946Z,3.40
2022-09-10T03:03:17.883Z,1.20
2022-09-10T03:05:44.936Z,0.80
2022-09-10T03:08:11.847Z,1.27
2022-09-10T03:10:42.847Z,1.30
2022-09-10T03:13:10.262Z,2.10
2022-09-10T03:15:38.369Z,1.33
2022-09-10T03:18:05.827Z,1.27
2022-09-10T03:20:32.652Z,0.80
2022-09-10T03:22:59.561Z,4.10
2022-09-10T03:25:26.764Z,2.00
2022-09-10T03:27:57.255Z,2.87
2022-09-10T03:30:26.685Z,3.13
2022-09-10T03:32:54.887Z,2.57
2022-09-10T03:35:22.563Z,1.27
2022-09-10T03:37:49.560Z,3.00
2022-09-10T03:40:17.782Z,0.60
2022-09-10T03:42:44.561Z,2.33
2022-09-10T03:45:12.301Z,1.33
2022-09-10T03:47:39.652Z,1.43
2022-09-10T03:50:07.057Z,4.50
2022-09-10T03:52:35.975Z,1.80
2022-09-10T03:55:03.218Z,1.80
2022-09-10T03:57:30.523Z,2.77
2022-09-10T03:59:58.961Z,0.97
2022-09-10T04:02:25.967Z,3.33
2022-09-10T04:04:52.881Z,1.97
2022-09-10T04:07:19.936Z,1.40
2022-09-10T04:09:49.319Z,1.70
2022-09-10T04:12:17.256Z,2.67
2022-09-10T04:14:45.630Z,1.33
2022-09-10T04:17:14.654Z,2.20
2022-09-10T04:19:43.006Z,1.73
2022-09-10T04:22:10.692Z,1.90
2022-09-10T04:24:38.934Z,0.83
2022-09-10T04:27:06.557Z,1.50
2022-09-10T04:29:33.992Z,2.57
2022-09-10T04:32:00.979Z,3.47
2022-09-10T04:34:31.121Z,3.73
2022-09-10T04:36:58.032Z,2.27
2022-09-10T04:39:24.928Z,1.33
2022-09-10T04:41:51.866Z,1.50
2022-09-10T04:44:20.291Z,1.83
2022-09-10T04:46:48.041Z,1.47
2022-09-10T04:49:14.970Z,1.77
2022-09-10T04:51:42.656Z,1.20
2022-09-10T04:54:12.178Z,1.70
2022-09-10T04:56:39.311Z,1.80
2022-09-10T04:59:06.408Z,2.30
2022-09-10T05:01:36.815Z,1.13
2022-09-10T05:04:04.205Z,1.30
2022-09-10T05:06:31.544Z,1.57
2022-09-10T05:08:58.924Z,2.50
2022-09-10T05:11:26.561Z,1.13
2022-09-10T05:13:54.178Z,3.10
2022-09-10T05:16:24.021Z,2.03
2022-09-10T05:18:50.994Z,1.37
2022-09-10T05:21:18.646Z,1.67
2022-09-10T05:23:46.242Z,3.00
2022-09-10T05:26:13.110Z,3.10
2022-09-10T05:28:40.105Z,3.83
2022-09-10T05:31:09.894Z,4.07
2022-09-10T05:33:40.860Z,2.97
2022-09-10T05:36:10.937Z,3.23
2022-09-10T05:38:40.207Z,2.30
2022-09-10T05:41:11.133Z,2.20
2022-09-10T05:43:42.369Z,5.17
2022-09-10T05:46:11.242Z,2.90
2022-09-10T05:48:41.892Z,3.37
2022-09-10T05:51:11.024Z,3.13
2022-09-10T05:53:39.330Z,2.80
2022-09-10T05:56:07.522Z,3.03
2022-09-10T05:58:35.923Z,3.90
2022-09-10T06:01:03.220Z,3.10
2022-09-10T06:03:31.599Z,5.03
2022-09-10T06:06:01.115Z,10.80
2022-09-10T06:08:40.430Z,5.40
2022-09-10T06:11:17.301Z,5.13
2022-09-10T06:13:48.405Z,4.20
2022-09-10T06:16:16.482Z,2.47
2022-09-10T06:18:44.269Z,2.13
2022-09-10T06:21:16.379Z,2.27
2022-09-10T06:23:45.599Z,2.80
2022-09-10T06:26:17.343Z,3.70
2022-09-10T06:28:46.261Z,3.87
2022-09-10T06:31:17.382Z,1.93
2022-09-10T06:33:44.600Z,3.33
2022-09-10T06:36:11.580Z,4.07
2022-09-10T06:38:40.203Z,2.90
2022-09-10T06:41:09.985Z,2.13
2022-09-10T06:43:42.775Z,3.23
2022-09-10T06:49:19.674Z,3.37
2022-09-10T06:51:50.313Z,3.83
2022-09-10T06:54:18.978Z,2.50
2022-09-10T06:56:47.268Z,3.50
2022-09-10T06:59:15.005Z,3.40
2022-09-10T07:01:47.663Z,3.13
2022-09-10T07:04:15.992Z,2.10
2022-09-10T07:06:43.929Z,3.43
2022-09-10T07:09:14.965Z,3.50
2022-09-10T07:12:09.697Z,4.00
2022-09-10T07:14:39.175Z,2.77
2022-09-10T07:17:08.314Z,2.63
2022-09-10T07:19:37.915Z,1.77
2022-09-10T07:22:38.053Z,1.67
2022-09-10T07:25:08.502Z,2.77
2022-09-10T07:27:51.517Z,1.73
2022-09-10T07:30:19.091Z,2.37
2022-09-10T07:32:48.932Z,1.63
2022-09-10T07:35:18.253Z,1.90
2022-09-10T07:37:46.124Z,5.73
2022-09-10T07:40:14.206Z,1.83
2022-09-10T07:42:44.008Z,3.13
2022-09-10T07:45:16.308Z,1.97
2022-09-10T07:47:47.575Z,1.87
2022-09-10T07:50:15.366Z,3.10
2022-09-10T07:52:42.187Z,2.90
2022-09-10T07:55:09.917Z,1.20
2022-09-10T07:57:40.023Z,2.60
2022-09-10T08:00:15.367Z,2.80
2022-09-10T08:02:43.106Z,2.23
2022-09-10T08:05:17.192Z,3.63
2022-09-10T08:07:45.456Z,2.20
2022-09-10T08:10:12.491Z,2.07
2022-09-10T08:12:40.914Z,3.03
2022-09-10T08:15:10.282Z,1.70
2022-09-10T08:17:39.624Z,1.97
2022-09-10T08:20:10.027Z,1.93
2022-09-10T08:22:40.629Z,2.77
2022-09-10T08:25:08.121Z,1.97
2022-09-10T08:27:36.801Z,1.90
2022-09-10T08:30:06.463Z,1.70
2022-09-10T08:32:35.002Z,1.93
2022-09-10T08:35:04.475Z,1.77
2022-09-10T08:37:32.859Z,2.87
2022-09-10T08:40:00.041Z,3.13
2022-09-10T08:42:40.249Z,1.93
2022-09-10T08:45:30.221Z,1.57
2022-09-10T08:48:02.571Z,2.23
2022-09-10T08:50:34.304Z,3.07
2022-09-10T08:53:08.253Z,1.30
2022-09-10T08:55:38.287Z,2.80
2022-09-10T08:58:07.694Z,2.23
2022-09-10T09:00:38.001Z,4.10
2022-09-10T09:03:16.305Z,2.93
2022-09-10T09:05:46.421Z,2.17
2022-09-10T09:08:17.260Z,1.37
2022-09-10T09:10:52.698Z,1.37
2022-09-10T09:13:26.967Z,3.70
2022-09-10T09:16:13.014Z,2.13
2022-09-10T09:18:50.159Z,2.50
2022-09-10T09:21:18.407Z,2.37
2022-09-10T09:24:13.624Z,1.23
2022-09-10T09:26:49.456Z,1.40
2022-09-10T09:29:19.647Z,3.00
2022-09-10T09:31:50.277Z,2.40
2022-09-10T09:34:21.010Z,1.40
2022-09-10T09:36:50.684Z,2.50
2022-09-10T09:39:25.311Z,1.83
2022-09-10T09:41:56.126Z,2.60
2022-09-10T09:44:36.797Z,2.37
2022-09-10T09:47:03.745Z,1.30
2022-09-10T09:49:31.128Z,4.03
2022-09-10T09:51:58.851Z,1.53
2022-09-10T09:55:03.278Z,4.10
2022-09-10T09:57:16.031Z,1.27
2022-09-10T09:59:42.848Z,1.87
2022-09-10T10:02:14.628Z,1.50
2022-09-10T10:04:43.296Z,1.87
2022-09-10T10:07:12.102Z,1.47
2022-09-10T10:09:42.625Z,1.90
2022-09-10T10:12:18.986Z,1.80
2022-09-10T10:14:45.963Z,1.53
2022-09-10T10:17:21.713Z,2.10
2022-09-10T10:19:59.992Z,1.50
2022-09-10T10:22:28.018Z,1.70
2022-09-10T10:24:55.067Z,2.00
2022-09-10T10:27:24.843Z,1.60
2022-09-10T10:29:53.425Z,2.33
2022-09-10T10:32:20.862Z,2.57
2022-09-10T10:34:47.741Z,2.50
2022-09-10T10:37:38.300Z,1.80
2022-09-10T10:40:26.773Z,5.23
2022-09-10T10:43:10.644Z,1.40
2022-09-10T10:45:47.715Z,2.33
2022-09-10T10:48:33.044Z,2.97
2022-09-10T10:51:03.085Z,1.90
2022-09-10T10:53:43.788Z,2.40
2022-09-10T10:56:30.218Z,1.50
2022-09-10T10:59:04.612Z,2.83
2022-09-10T11:01:35.966Z,2.20
2022-09-10T11:04:22.940Z,6.57
2022-09-10T11:07:10.076Z,2.73
2022-09-10T11:09:49.246Z,2.37
2022-09-10T11:12:19.451Z,1.80
2022-09-10T11:14:49.421Z,1.40
2022-09-10T11:17:20.035Z,1.40
2022-09-10T11:20:10.839Z,1.83
2022-09-10T11:22:43.859Z,1.80
2022-09-10T11:25:17.143Z,1.70
2022-09-10T11:27:47.138Z,3.20
2022-09-10T11:30:17.160Z,1.63
2022-09-10T11:32:53.672Z,1.63
2022-09-10T11:35:34.093Z,2.37
2022-09-10T11:38:13.258Z,1.90
2022-09-10T11:40:59.001Z,4.13
2022-09-10T11:43:30.547Z,1.57
2022-09-10T11:45:59.398Z,3.60
2022-09-10T11:48:40.188Z,2.17
2022-09-10T11:51:22.507Z,3.47
2022-09-10T11:53:50.320Z,1.67
2022-09-10T11:56:20.133Z,2.50
2022-09-10T11:58:47.197Z,1.97
2022-09-10T12:01:32.882Z,2.50
2022-09-10T12:04:06.023Z,2.40
2022-09-10T12:06:40.037Z,7.83
2022-09-10T12:09:10.350Z,2.43
2022-09-10T12:11:37.172Z,2.70
2022-09-10T12:14:18.276Z,7.33
2022-09-10T12:16:51.122Z,2.50
2022-09-10T12:19:24.702Z,2.70
2022-09-10T12:22:01.396Z,4.30
2022-09-10T12:24:32.637Z,2.83
2022-09-10T12:27:03.791Z,2.43
2022-09-10T12:29:30.617Z,4.30
2022-09-10T12:32:23.654Z,3.47
2022-09-10T12:35:11.856Z,5.03
2022-09-10T12:37:39.208Z,2.30
2022-09-10T12:40:25.067Z,2.57
2022-09-10T12:42:52.591Z,2.20
2022-09-10T12:45:43.259Z,2.80
2022-09-10T12:48:16.692Z,2.43
2022-09-10T12:50:51.173Z,2.67
2022-09-10T12:53:26.300Z,6.03
2022-09-10T12:56:16.668Z,5.80
2022-09-10T12:58:49.622Z,3.70
2022-09-10T13:01:25.828Z,4.83
2022-09-10T13:03:56.359Z,3.10
2022-09-10T13:06:39.999Z,4.63
2022-09-10T13:09:25.668Z,2.07
2022-09-10T13:11:54.499Z,2.30
2022-09-10T13:14:30.636Z,2.33
2022-09-10T13:16:57.655Z,2.50
2022-09-10T13:19:24.415Z,3.27
2022-09-10T13:21:52.232Z,2.40
2022-09-10T13:24:34.632Z,3.30
2022-09-10T13:27:20.727Z,2.80
2022-09-10T13:29:53.924Z,2.97
2022-09-10T13:32:34.586Z,1.87
2022-09-10T13:35:27.589Z,2.00
2022-09-10T13:38:09.586Z,5.07
2022-09-10T13:40:37.050Z,3.00
2022-09-10T13:43:09.924Z,3.57
2022-09-10T13:45:41.978Z,2.43
2022-09-10T13:48:17.598Z,3.80
2022-09-10T13:51:03.614Z,2.90
2022-09-10T13:53:32.213Z,4.60
2022-09-10T13:56:00.532Z,6.77
2022-09-10T13:58:30.281Z,4.80
2022-09-10T14:00:58.736Z,11.17
2022-09-10T14:03:30.591Z,8.63
2022-09-10T14:06:07.852Z,2.97
2022-09-10T14:08:39.726Z,3.10
2022-09-10T14:11:10.604Z,3.90
2022-09-10T14:13:46.991Z,2.83
2022-09-10T14:16:17.817Z,4.93
2022-09-10T14:18:47.428Z,3.00
2022-09-10T14:21:15.308Z,6.20
2022-09-10T14:23:46.343Z,2.10
2022-09-10T14:26:26.492Z,4.00
2022-09-10T14:29:00.069Z,5.67
2022-09-10T14:31:30.109Z,6.07
2022-09-10T14:33:58.218Z,4.13
2022-09-10T14:36:25.464Z,3.77
2022-09-10T14:38:54.196Z,5.00
2022-09-10T14:41:22.759Z,4.50
2022-09-10T14:43:50.577Z,3.73
2022-09-10T14:46:36.440Z,3.40
2022-09-10T14:49:08.927Z,5.33
2022-09-10T14:51:35.757Z,5.20
2022-09-10T14:54:03.151Z,4.03
2022-09-10T14:56:35.820Z,3.27
2022-09-10T14:59:08.608Z,3.73
2022-09-10T15:01:35.703Z,3.43
2022-09-10T15:04:03.628Z,2.33
2022-09-10T15:06:31.794Z,2.00
2022-09-10T15:08:58.624Z,5.10
2022-09-10T15:11:26.889Z,14.97
2022-09-10T15:13:56.118Z,9.30
2022-09-10T15:16:25.921Z,10.53
2022-09-10T15:18:52.796Z,14.40
2022-09-10T15:21:19.942Z,8.33
2022-09-10T15:23:48.400Z,5.93
2022-09-10T15:26:16.563Z,10.27
2022-09-10T15:28:43.487Z,5.70
2022-09-10T15:31:11.161Z,6.20
2022-09-10T15:33:38.375Z,7.67
2022-09-10T15:36:05.365Z,23.97
2022-09-10T15:38:32.269Z,6.23
2022-09-10T15:41:06.657Z,6.57
2022-09-10T15:43:36.146Z,4.37
2022-09-10T15:46:03.112Z,4.67
2022-09-10T15:48:30.884Z,6.57
2022-09-10T15:51:01.058Z,4.13
2022-09-10T15:53:28.252Z,5.57
2022-09-10T15:55:55.203Z,10.40
2022-09-10T15:58:22.043Z,9.13
2022-09-10T16:00:48.888Z,10.73
2022-09-10T16:03:15.801Z,16.63
2022-09-10T16:05:42.715Z,29.70
2022-09-10T16:08:09.460Z,33.43
2022-09-10T16:10:38.638Z,7.37
2022-09-10T16:13:05.676Z,7.07
2022-09-10T16:15:32.660Z,9.97
2022-09-10T16:18:00.633Z,9.80
2022-09-10T16:20:27.603Z,10.13
2022-09-10T16:22:54.592Z,14.33
2022-09-10T16:25:21.546Z,11.53
2022-09-10T16:27:48.326Z,12.27
2022-09-10T16:30:15.207Z,14.50
2022-09-10T16:32:42.048Z,10.10
2022-09-10T16:35:09.303Z,7.50
2022-09-10T16:37:36.144Z,5.47
2022-09-10T16:40:05.515Z,20.27
2022-09-10T16:42:32.416Z,24.33
2022-09-10T16:44:59.202Z,30.53
2022-09-10T16:47:26.226Z,29.17
2022-09-10T16:49:53.129Z,10.37
2022-09-10T16:52:20.029Z,10.93
2022-09-10T16:54:46.872Z,8.40
2022-09-10T16:57:13.777Z,9.23
2022-09-10T16:59:40.571Z,7.93
2022-09-10T17:02:07.712Z,6.00
2022-09-10T17:04:35.172Z,8.40
2022-09-10T17:07:02.047Z,7.63
2022-09-10T17:09:28.856Z,6.87
2022-09-10T17:11:55.836Z,6.40
2022-09-10T17:14:22.705Z,8.70
2022-09-10T17:16:50.133Z,10.80
2022-09-10T17:19:18.633Z,7.63
2022-09-10T17:21:49.002Z,9.40
2022-09-10T17:24:15.798Z,8.93
2022-09-10T17:26:42.805Z,7.50
2022-09-10T17:29:11.088Z,8.97
2022-09-10T17:31:37.854Z,13.17
2022-09-10T17:34:04.750Z,14.57
2022-09-10T17:36:31.888Z,8.07
2022-09-10T17:38:59.381Z,11.37
2022-09-10T17:41:27.244Z,8.93
2022-09-10T17:43:54.862Z,6.67
2022-09-10T17:46:23.521Z,5.67
2022-09-10T17:48:50.995Z,11.10
2022-09-10T17:51:19.533Z,11.80
2022-09-10T17:53:46.609Z,13.40
2022-09-10T17:56:14.924Z,11.57
2022-09-10T17:58:42.268Z,8.57
2022-09-10T18:01:11.584Z,10.07
2022-09-10T18:03:39.753Z,8.33
2022-09-10T18:06:09.009Z,10.07
2022-09-10T18:08:36.653Z,9.83
2022-09-10T18:11:06.090Z,10.83
2022-09-10T18:13:34.383Z,13.03
2022-09-10T18:16:09.161Z,15.03
2022-09-10T18:18:37.046Z,16.77
2022-09-10T18:21:14.205Z,22.50
2022-09-10T18:23:41.738Z,23.57
2022-09-10T18:26:15.839Z,26.23
2022-09-10T18:28:43.605Z,20.73
2022-09-10T18:31:11.124Z,18.07
2022-09-10T18:33:39.217Z,14.43
2022-09-10T18:36:17.780Z,15.60
2022-09-10T18:38:45.188Z,13.80
2022-09-10T18:41:19.452Z,17.33
2022-09-10T18:43:47.508Z,16.97
2022-09-10T18:46:15.129Z,9.63
2022-09-10T18:48:42.745Z,10.00
2022-09-10T18:51:10.929Z,9.10
2022-09-10T18:53:38.719Z,6.00
2022-09-10T18:56:10.196Z,6.93
2022-09-10T18:58:37.740Z,7.87
2022-09-10T19:01:11.760Z,7.27
2022-09-10T19:03:44.077Z,6.57
2022-09-10T19:06:12.384Z,24.47
2022-09-10T19:08:41.730Z,17.77
2022-09-10T19:11:09.813Z,7.47
2022-09-10T19:13:37.066Z,8.90
2022-09-10T19:16:04.658Z,7.83
2022-09-10T19:18:32.355Z,5.77
2022-09-10T19:21:02.579Z,10.60
2022-09-10T19:23:29.443Z,7.93
2022-09-10T19:25:56.878Z,12.97
2022-09-10T19:28:23.978Z,8.83
2022-09-10T19:30:52.270Z,9.93
2022-09-10T19:33:21.138Z,8.57
2022-09-10T19:35:47.953Z,10.00
2022-09-10T19:38:36.228Z,14.60
2022-09-10T19:41:12.592Z,10.70
2022-09-10T19:43:40.327Z,7.20
2022-09-10T19:46:08.070Z,8.73
2022-09-10T19:48:34.974Z,8.07
2022-09-10T19:51:05.447Z,9.80
2022-09-10T19:53:35.647Z,11.97
2022-09-10T19:56:09.568Z,10.27
2022-09-10T19:58:36.734Z,15.83
2022-09-10T20:01:09.869Z,9.67
2022-09-10T20:03:37.360Z,13.57
2022-09-10T20:06:04.677Z,8.73
2022-09-10T20:08:34.120Z,6.63
2022-09-10T20:11:01.592Z,9.50
2022-09-10T20:13:28.649Z,12.50
2022-09-10T20:15:55.805Z,9.50
2022-09-10T20:18:29.255Z,9.90
2022-09-10T20:20:57.633Z,8.87
2022-09-10T20:23:24.423Z,7.47
2022-09-10T20:25:51.327Z,8.87
2022-09-10T20:28:19.079Z,12.50
2022-09-10T20:30:46.505Z,11.87
2022-09-10T20:33:13.373Z,9.03
2022-09-10T20:35:41.787Z,9.47
2022-09-10T20:38:09.309Z,11.13
2022-09-10T20:40:36.776Z,16.60
2022-09-10T20:43:03.575Z,24.37
2022-09-10T20:45:31.576Z,18.97
2022-09-10T20:48:00.472Z,14.27
2022-09-10T20:50:27.626Z,16.47
2022-09-10T20:52:54.742Z,20.90
2022-09-10T20:55:21.646Z,18.10
2022-09-10T20:57:48.948Z,18.40
2022-09-10T21:00:15.857Z,19.53
2022-09-10T21:02:42.996Z,16.23
2022-09-10T21:05:09.904Z,18.07
2022-09-10T21:07:36.831Z,16.13
2022-09-10T21:10:03.701Z,16.20
2022-09-10T21:12:30.638Z,15.70
2022-09-10T21:14:57.397Z,17.13
2022-09-10T21:17:24.212Z,12.80
2022-09-10T21:19:51.054Z,13.40
2022-09-10T21:22:17.897Z,13.17
2022-09-10T21:24:44.741Z,13.67
2022-09-10T21:27:11.644Z,9.40
2022-09-10T21:29:39.101Z,7.27
2022-09-10T21:32:06.195Z,25.50
2022-09-10T21:34:33.089Z,9.23
2022-09-10T21:37:00.290Z,8.30
2022-09-10T21:39:27.851Z,8.00
2022-09-10T21:41:55.452Z,7.23
2022-09-10T21:44:25.161Z,7.93
2022-09-10T21:46:52.828Z,11.27
2022-09-10T21:49:20.586Z,9.50
2022-09-10T21:51:47.540Z,9.33
2022-09-10T21:54:20.797Z,17.90
2022-09-10T21:56:52.001Z,8.63
2022-09-10T21:59:20.650Z,9.07
2022-09-10T22:01:47.698Z,9.03
2022-09-10T22:04:19.979Z,7.87
2022-09-10T22:06:49.154Z,10.77
2022-09-10T22:09:16.312Z,10.17
2022-09-10T22:11:46.165Z,20.43
2022-09-10T22:14:14.837Z,10.70
2022-09-10T22:16:42.156Z,8.40
2022-09-10T22:19:11.554Z,10.57
2022-09-10T22:21:38.624Z,12.33
2022-09-10T22:24:06.700Z,8.23
2022-09-10T22:26:33.844Z,7.67
2022-09-10T22:29:01.151Z,7.20
2022-09-10T22:31:29.740Z,8.90
2022-09-10T22:33:57.630Z,8.30
2022-09-10T22:36:26.462Z,8.20
2022-09-10T22:38:54.428Z,9.93
2022-09-10T22:41:23.656Z,8.20
2022-09-10T22:43:50.563Z,9.37
2022-09-10T22:46:17.926Z,9.90
2022-09-10T22:48:45.678Z,9.50
2022-09-10T22:51:14.004Z,9.93
2022-09-10T22:53:42.037Z,12.77
2022-09-10T22:56:09.470Z,9.30
2022-09-10T22:58:36.686Z,12.13
2022-09-10T23:01:08.341Z,13.13
2022-09-10T23:03:35.629Z,9.40
2022-09-10T23:06:04.109Z,10.43
2022-09-10T23:08:32.267Z,12.90
2022-09-10T23:11:16.528Z,10.20
2022-09-10T23:13:44.321Z,9.63
2022-09-10T23:16:18.653Z,11.53
2022-09-10T23:18:50.752Z,10.63
2022-09-10T23:21:18.587Z,10.40
2022-09-10T23:23:49.057Z,10.87
2022-09-10T23:26:17.417Z,10.37
2022-09-10T23:28:44.574Z,11.83
2022-09-10T23:31:15.788Z,12.77
2022-09-10T23:33:46.947Z,11.33
2022-09-10T23:36:14.284Z,12.90
2022-09-10T23:38:42.252Z,8.00
2022-09-10T23:41:09.625Z,9.03
2022-09-10T23:43:36.564Z,8.07
2022-09-10T23:46:03.419Z,9.57
2022-09-10T23:48:30.387Z,10.57
2022-09-10T23:50:57.763Z,10.20
2022-09-10T23:53:25.497Z,13.57
2022-09-10T23:55:52.504Z,10.50
2022-09-10T23:58:20.120Z,9.57
